createdAt,value
2019-05-23T00:05:10.225Z,99.90
2019-05-23T00:07:43.418Z,99.90
2019-05-23T00:10:16.508Z,99.90
2019-05-23T00:13:01.481Z,99.90
2019-05-23T00:15:35.626Z,99.90
2019-05-23T00:18:06.532Z,99.90
2019-05-23T00:20:35.583Z,99.90
2019-05-23T00:23:12.830Z,99.90
2019-05-23T00:25:43.526Z,99.90
2019-05-23T00:28:12.718Z,99.90
2019-05-23T00:31:01.312Z,99.90
2019-05-23T00:33:31.535Z,99.90
2019-05-23T00:36:00.323Z,99.90
2019-05-23T00:38:33.349Z,99.90
2019-05-23T00:41:05.249Z,99.90
2019-05-23T00:43:34.199Z,99.90
2019-05-23T00:46:09.462Z,99.90
2019-05-23T00:48:41.157Z,99.90
2019-05-23T00:51:13.802Z,99.90
2019-05-23T00:53:48.858Z,99.90
2019-05-23T00:56:17.555Z,99.90
2019-05-23T00:58:50.070Z,99.90
2019-05-23T01:01:25.883Z,99.90
2019-05-23T01:03:54.915Z,99.90
2019-05-23T01:06:26.853Z,99.90
2019-05-23T01:08:59.665Z,99.90
2019-05-23T01:11:29.750Z,99.90
2019-05-23T01:13:59.300Z,99.90
2019-05-23T01:16:30.774Z,99.90
2019-05-23T01:19:06.707Z,99.90
2019-05-23T01:21:39.470Z,99.90
2019-05-23T01:24:21.880Z,99.90
2019-05-23T01:26:50.833Z,99.90
2019-05-23T01:29:20.857Z,99.90
2019-05-23T01:31:51.357Z,99.90
2019-05-23T01:34:24.852Z,99.90
2019-05-23T01:36:59.859Z,99.90
2019-05-23T01:39:29.278Z,99.90
2019-05-23T01:41:58.553Z,99.90
2019-05-23T01:44:28.848Z,99.90
2019-05-23T01:47:03.534Z,99.90
2019-05-23T01:49:35.278Z,99.90
2019-05-23T01:52:24.073Z,99.90
2019-05-23T01:54:57.131Z,99.90
2019-05-23T01:57:29.101Z,99.90
2019-05-23T02:00:08.777Z,99.90
2019-05-23T02:02:36.017Z,99.90
2019-05-23T02:05:09.840Z,99.90
2019-05-23T02:07:42.085Z,99.90
2019-05-23T02:10:16.394Z,99.90
2019-05-23T02:12:48.224Z,99.90
2019-05-23T02:15:22.917Z,99.90
2019-05-23T02:17:57.873Z,99.90
2019-05-23T02:20:27.325Z,99.90
2019-05-23T02:22:58.646Z,99.90
2019-05-23T02:25:29.568Z,99.90
2019-05-23T02:27:58.370Z,99.90
2019-05-23T02:30:34.871Z,99.90
2019-05-23T02:33:09.088Z,99.90
2019-05-23T02:35:49.552Z,99.90
2019-05-23T02:38:25.713Z,99.90
2019-05-23T02:41:04.780Z,99.90
2019-05-23T02:43:36.726Z,99.90
2019-05-23T02:46:12.392Z,99.90
2019-05-23T02:48:42.951Z,99.90
2019-05-23T02:51:14.699Z,99.90
2019-05-23T02:53:49.506Z,99.90
2019-05-23T02:56:20.365Z,99.90
2019-05-23T02:59:22.441Z,99.90
2019-05-23T03:02:19.888Z,99.90
2019-05-23T03:04:52.409Z,99.90
2019-05-23T03:07:24.746Z,99.90
2019-05-23T03:09:59.302Z,99.90
2019-05-23T03:12:35.666Z,99.90
2019-05-23T03:15:10.859Z,99.90
2019-05-23T03:17:43.230Z,99.90
2019-05-23T03:20:13.533Z,99.90
2019-05-23T03:23:04.209Z,99.90
2019-05-23T03:25:41.499Z,99.90
2019-05-23T03:28:22.852Z,99.90
2019-05-23T03:30:44.806Z,99.90
2019-05-23T03:33:17.955Z,99.90
2019-05-23T03:35:59.598Z,99.90
2019-05-23T03:38:36.541Z,99.90
2019-05-23T03:41:08.869Z,99.90
2019-05-23T03:43:44.376Z,99.90
2019-05-23T03:46:22.979Z,99.90
2019-05-23T03:48:56.066Z,99.90
2019-05-23T03:51:24.489Z,99.90
2019-05-23T03:53:54.559Z,99.90
2019-05-23T03:56:30.026Z,99.90
2019-05-23T03:59:02.019Z,99.90
2019-05-23T04:01:47.572Z,99.90
2019-05-23T04:04:12.014Z,99.90
2019-05-23T04:06:40.919Z,99.90
2019-05-23T04:09:12.199Z,99.90
2019-05-23T04:11:40.974Z,99.90
2019-05-23T04:14:15.130Z,99.90
2019-05-23T04:16:54.998Z,99.90
2019-05-23T04:19:23.495Z,99.90
2019-05-23T04:21:56.028Z,99.90
2019-05-23T04:24:24.815Z,99.90
2019-05-23T04:27:01.006Z,99.90
2019-05-23T04:29:32.505Z,99.90
2019-05-23T04:32:07.900Z,99.90
2019-05-23T04:34:36.460Z,99.90
2019-05-23T04:37:06.687Z,99.90
2019-05-23T04:39:39.766Z,99.90
2019-05-23T04:42:09.825Z,99.90
2019-05-23T04:44:43.463Z,99.90
2019-05-23T04:47:11.439Z,99.90
2019-05-23T04:49:41.483Z,99.70
2019-05-23T04:52:12.866Z,99.40
2019-05-23T04:54:42.026Z,98.90
2019-05-23T04:57:20.043Z,99.10
2019-05-23T04:59:54.109Z,99.60
2019-05-23T05:02:27.147Z,99.90
2019-05-23T05:04:57.426Z,99.90
2019-05-23T05:07:31.924Z,99.90
2019-05-23T05:09:58.038Z,99.90
2019-05-23T05:12:28.646Z,99.90
2019-05-23T05:15:01.824Z,99.20
2019-05-23T05:17:32.127Z,96.40
2019-05-23T05:20:03.182Z,94.10
2019-05-23T05:22:39.359Z,91.10
2019-05-23T05:25:12.859Z,85.00
2019-05-23T05:27:49.230Z,78.80
2019-05-23T05:30:20.845Z,70.90
2019-05-23T05:33:00.275Z,63.70
2019-05-23T05:35:41.252Z,58.20
2019-05-23T05:38:13.076Z,53.80
2019-05-23T05:40:45.905Z,52.10
2019-05-23T05:43:16.618Z,50.90
2019-05-23T05:45:50.318Z,48.40
2019-05-23T05:48:20.142Z,46.90
2019-05-23T05:50:56.921Z,45.60
2019-05-23T05:53:27.065Z,43.60
2019-05-23T05:56:03.980Z,42.60
2019-05-23T05:58:32.630Z,41.10
2019-05-23T06:01:02.771Z,39.20
2019-05-23T06:03:34.373Z,37.00
2019-05-23T06:06:21.427Z,36.40
2019-05-23T06:09:12.277Z,35.30
2019-05-23T06:11:42.378Z,34.30
2019-05-23T06:14:13.962Z,33.70
2019-05-23T06:16:43.281Z,32.40
2019-05-23T06:19:19.443Z,32.10
2019-05-23T06:21:47.913Z,32.20
2019-05-23T06:24:39.843Z,31.50
2019-05-23T06:26:56.053Z,31.20
2019-05-23T06:29:35.207Z,30.90
2019-05-23T06:32:08.437Z,30.40
2019-05-23T06:34:38.514Z,30.50
2019-05-23T06:37:21.898Z,31.20
2019-05-23T06:39:50.005Z,29.60
2019-05-23T06:42:18.776Z,29.40
2019-05-23T06:44:48.897Z,29.80
2019-05-23T06:47:27.373Z,31.00
2019-05-23T06:49:58.801Z,32.60
2019-05-23T06:52:35.679Z,33.00
2019-05-23T06:55:08.313Z,32.00
2019-05-23T06:57:45.750Z,32.60
2019-05-23T07:00:16.265Z,32.90
2019-05-23T07:02:45.615Z,31.50
2019-05-23T07:05:25.903Z,31.60
2019-05-23T07:08:00.074Z,31.50
2019-05-23T07:10:31.297Z,31.40
2019-05-23T07:13:02.663Z,32.80
2019-05-23T07:15:38.326Z,34.50
2019-05-23T07:18:07.821Z,35.60
2019-05-23T07:20:47.009Z,36.60
2019-05-23T07:23:17.949Z,35.90
2019-05-23T07:25:49.303Z,35.50
2019-05-23T07:28:20.672Z,35.00
2019-05-23T07:30:53.959Z,34.90
2019-05-23T07:33:27.031Z,34.80
2019-05-23T07:36:23.415Z,35.70
2019-05-23T07:38:53.551Z,37.90
2019-05-23T07:41:27.410Z,38.60
2019-05-23T07:43:57.924Z,37.10
2019-05-23T07:46:26.733Z,35.50
2019-05-23T07:48:55.537Z,32.70
2019-05-23T07:51:24.023Z,33.10
2019-05-23T07:53:56.889Z,31.40
2019-05-23T07:56:33.089Z,29.80
2019-05-23T07:59:01.840Z,28.80
2019-05-23T08:01:44.662Z,28.40
2019-05-23T08:04:21.839Z,26.80
2019-05-23T08:06:49.117Z,25.70
2019-05-23T08:09:22.546Z,26.00
2019-05-23T08:11:52.596Z,26.60
2019-05-23T08:14:28.227Z,27.20
2019-05-23T08:16:56.813Z,26.30
2019-05-23T08:19:26.873Z,27.20
2019-05-23T08:21:55.288Z,28.30
2019-05-23T08:24:24.093Z,27.60
2019-05-23T08:26:55.089Z,27.30
2019-05-23T08:29:26.577Z,27.00
2019-05-23T08:31:54.493Z,26.80
2019-05-23T08:34:40.046Z,27.40
2019-05-23T08:37:04.799Z,29.00
2019-05-23T08:39:27.685Z,29.40
2019-05-23T08:41:56.601Z,29.20
2019-05-23T08:44:37.654Z,29.90
2019-05-23T08:47:10.812Z,28.40
2019-05-23T08:49:42.273Z,28.10
2019-05-23T08:52:16.882Z,27.60
2019-05-23T08:54:46.858Z,25.50
2019-05-23T08:57:19.592Z,25.90
2019-05-23T08:59:48.178Z,26.40
2019-05-23T09:02:23.979Z,26.50
2019-05-23T09:05:04.401Z,24.60
2019-05-23T09:07:27.531Z,26.20
2019-05-23T09:09:57.598Z,25.00
2019-05-23T09:12:32.014Z,23.70
2019-05-23T09:15:03.157Z,23.40
2019-05-23T09:17:51.409Z,23.90
2019-05-23T09:20:07.914Z,24.40
2019-05-23T09:22:38.091Z,23.80
2019-05-23T09:25:13.793Z,24.00
2019-05-23T09:27:42.222Z,24.00
2019-05-23T09:30:16.070Z,24.10
2019-05-23T09:32:48.949Z,23.30
2019-05-23T09:35:21.357Z,23.60
2019-05-23T09:37:49.337Z,23.30
2019-05-23T09:40:20.984Z,24.30
2019-05-23T09:42:51.214Z,23.30
2019-05-23T09:45:19.711Z,23.70
2019-05-23T09:47:51.647Z,24.80
2019-05-23T09:50:34.268Z,25.40
2019-05-23T09:53:00.175Z,24.10
2019-05-23T09:55:31.665Z,25.00
2019-05-23T09:58:02.787Z,24.10
2019-05-23T10:00:41.998Z,24.30
2019-05-23T10:03:09.900Z,23.20
2019-05-23T10:05:44.155Z,24.50
2019-05-23T10:08:22.364Z,23.00
2019-05-23T10:10:51.572Z,23.20
2019-05-23T10:13:36.069Z,24.10
2019-05-23T10:15:58.563Z,23.30
2019-05-23T10:18:32.780Z,22.60
2019-05-23T10:21:02.262Z,22.40
2019-05-23T10:23:34.442Z,23.00
2019-05-23T10:26:05.249Z,23.50
2019-05-23T10:28:37.977Z,24.60
2019-05-23T10:31:08.420Z,25.30
2019-05-23T10:33:38.963Z,24.70
2019-05-23T10:36:07.926Z,25.20
2019-05-23T10:38:45.561Z,26.60
2019-05-23T10:41:15.842Z,27.60
2019-05-23T10:43:47.263Z,29.10
2019-05-23T10:46:17.393Z,27.90
2019-05-23T10:48:45.808Z,27.60
2019-05-23T10:51:17.405Z,27.90
2019-05-23T10:53:46.560Z,28.70
2019-05-23T10:56:20.408Z,27.50
2019-05-23T10:58:50.070Z,26.90
2019-05-23T11:01:23.200Z,27.70
2019-05-23T11:03:54.859Z,27.60
2019-05-23T11:06:26.061Z,28.30
2019-05-23T11:08:59.302Z,28.70
2019-05-23T11:11:41.394Z,28.50
2019-05-23T11:14:14.389Z,29.20
2019-05-23T11:16:47.671Z,29.50
2019-05-23T11:19:19.220Z,30.80
2019-05-23T11:21:51.298Z,31.30
2019-05-23T11:24:20.519Z,31.60
2019-05-23T11:26:52.110Z,32.20
2019-05-23T11:29:20.922Z,31.90
2019-05-23T11:31:52.262Z,31.50
2019-05-23T11:34:25.409Z,30.80
2019-05-23T11:36:55.579Z,30.50
2019-05-23T11:39:27.890Z,31.60
2019-05-23T11:41:56.320Z,33.20
2019-05-23T11:44:24.810Z,32.90
2019-05-23T11:46:56.201Z,31.90
2019-05-23T11:49:24.603Z,32.80
2019-05-23T11:51:54.941Z,32.00
2019-05-23T11:54:25.056Z,32.40
2019-05-23T11:56:55.112Z,33.40
2019-05-23T11:59:23.710Z,33.90
2019-05-23T12:02:12.934Z,35.00
2019-05-23T12:04:44.813Z,35.60
2019-05-23T12:07:15.049Z,36.60
2019-05-23T12:09:48.885Z,37.70
2019-05-23T12:12:17.317Z,35.80
2019-05-23T12:14:47.653Z,34.70
2019-05-23T12:17:18.388Z,36.10
2019-05-23T12:19:52.923Z,38.30
2019-05-23T12:22:26.051Z,40.10
2019-05-23T12:24:56.190Z,40.80
2019-05-23T12:27:33.204Z,39.50
2019-05-23T12:30:03.426Z,36.80
2019-05-23T12:32:41.118Z,36.70
2019-05-23T12:35:17.717Z,38.90
2019-05-23T12:37:47.774Z,40.30
2019-05-23T12:40:22.265Z,41.80
2019-05-23T12:42:52.330Z,40.20
2019-05-23T12:45:23.614Z,42.50
2019-05-23T12:47:56.404Z,41.90
2019-05-23T12:50:40.530Z,43.50
2019-05-23T12:53:13.271Z,43.60
2019-05-23T12:55:44.788Z,43.30
2019-05-23T12:58:17.619Z,43.70
2019-05-23T13:00:47.940Z,43.80
2019-05-23T13:03:23.269Z,44.30
2019-05-23T13:05:55.274Z,44.80
2019-05-23T13:08:32.763Z,45.40
2019-05-23T13:11:01.342Z,44.00
2019-05-23T13:13:34.504Z,44.70
2019-05-23T13:16:03.068Z,44.60
2019-05-23T13:18:34.510Z,42.80
2019-05-23T13:21:05.563Z,45.00
2019-05-23T13:23:40.030Z,42.80
2019-05-23T13:26:08.794Z,43.30
2019-05-23T13:28:40.411Z,44.40
2019-05-23T13:31:11.821Z,44.60
2019-05-23T13:33:47.953Z,46.80
2019-05-23T13:36:19.595Z,46.00
2019-05-23T13:38:48.119Z,45.70
2019-05-23T13:41:18.179Z,47.20
2019-05-23T13:43:50.355Z,46.70
2019-05-23T13:46:23.117Z,46.70
2019-05-23T13:48:51.926Z,46.00
2019-05-23T13:51:29.194Z,45.80
2019-05-23T13:53:59.339Z,45.50
2019-05-23T13:56:30.723Z,45.60
2019-05-23T13:58:59.141Z,44.70
2019-05-23T14:01:39.732Z,46.00
2019-05-23T14:04:08.225Z,46.70
2019-05-23T14:06:42.510Z,44.60
2019-05-23T14:09:20.032Z,44.80
2019-05-23T14:12:19.508Z,44.40
2019-05-23T14:14:26.162Z,44.80
2019-05-23T14:17:11.515Z,44.90
2019-05-23T14:19:40.277Z,45.30
2019-05-23T14:22:11.440Z,45.60
2019-05-23T14:24:39.918Z,44.80
2019-05-23T14:27:10.258Z,44.30
2019-05-23T14:29:38.754Z,45.90
2019-05-23T14:32:11.934Z,44.40
2019-05-23T14:34:43.124Z,45.80
2019-05-23T14:37:24.102Z,44.70
2019-05-23T14:39:58.313Z,46.80
2019-05-23T14:42:40.192Z,45.10
2019-05-23T14:45:17.411Z,45.60
2019-05-23T14:47:50.390Z,46.60
2019-05-23T14:50:23.485Z,44.90
2019-05-23T14:52:56.778Z,48.30
2019-05-23T14:55:25.392Z,49.00
2019-05-23T14:58:01.810Z,49.50
2019-05-23T15:00:35.972Z,49.70
2019-05-23T15:03:07.619Z,50.40
2019-05-23T15:05:37.679Z,50.80
2019-05-23T15:08:12.865Z,50.90
2019-05-23T15:10:42.948Z,50.90
2019-05-23T15:13:11.364Z,51.80
2019-05-23T15:15:42.456Z,51.70
2019-05-23T15:18:11.443Z,51.20
2019-05-23T15:20:39.866Z,51.40
2019-05-23T15:23:08.355Z,51.80
2019-05-23T15:26:21.738Z,52.40
2019-05-23T15:28:42.673Z,52.10
2019-05-23T15:31:11.442Z,52.60
2019-05-23T15:33:41.506Z,52.60
2019-05-23T15:36:10.112Z,52.70
2019-05-23T15:38:40.491Z,52.30
2019-05-23T15:41:12.080Z,52.40
2019-05-23T15:43:43.450Z,52.70
2019-05-23T15:46:12.831Z,52.40
2019-05-23T15:48:45.512Z,51.70
2019-05-23T15:51:30.246Z,51.20
2019-05-23T15:54:15.579Z,51.60
2019-05-23T15:57:03.702Z,52.40
2019-05-23T15:59:45.990Z,51.90
2019-05-23T16:02:16.330Z,52.00
2019-05-23T16:04:44.919Z,53.60
2019-05-23T16:07:41.368Z,53.70
2019-05-23T16:10:16.776Z,54.40
2019-05-23T16:12:47.102Z,54.50
2019-05-23T16:15:18.547Z,53.00
2019-05-23T16:17:47.447Z,53.10
2019-05-23T16:20:22.273Z,53.00
2019-05-23T16:22:51.161Z,53.30
2019-05-23T16:25:22.362Z,53.90
2019-05-23T16:27:53.447Z,54.10
2019-05-23T16:30:24.549Z,53.90
2019-05-23T16:32:56.951Z,53.90
2019-05-23T16:35:28.625Z,53.40
2019-05-23T16:37:57.277Z,54.60
2019-05-23T16:40:26.048Z,55.90
2019-05-23T16:42:54.533Z,56.50
2019-05-23T16:45:23.285Z,57.90
2019-05-23T16:47:54.801Z,58.60
2019-05-23T16:50:28.970Z,57.90
2019-05-23T16:53:09.746Z,58.30
2019-05-23T16:55:39.808Z,58.90
2019-05-23T16:58:37.196Z,59.90
2019-05-23T17:01:24.245Z,59.40
2019-05-23T17:04:04.604Z,59.50
2019-05-23T17:06:52.843Z,60.70
2019-05-23T17:09:35.143Z,60.70
2019-05-23T17:12:14.555Z,60.80
2019-05-23T17:14:59.954Z,62.80
2019-05-23T17:18:01.182Z,62.70
2019-05-23T17:20:20.349Z,63.30
2019-05-23T17:23:09.431Z,65.00
2019-05-23T17:25:45.956Z,67.10
2019-05-23T17:28:35.109Z,67.00
2019-05-23T17:31:07.898Z,67.50
2019-05-23T17:33:37.220Z,68.80
2019-05-23T17:36:06.033Z,68.80
2019-05-23T17:38:34.634Z,69.30
2019-05-23T17:41:03.077Z,69.80
2019-05-23T17:43:31.611Z,70.10
2019-05-23T17:46:00.095Z,70.50
2019-05-23T17:48:29.459Z,72.40
2019-05-23T17:50:58.034Z,74.30
2019-05-23T17:53:26.759Z,72.70
2019-05-23T17:55:55.630Z,73.90
2019-05-23T17:58:25.102Z,74.60
2019-05-23T18:00:53.610Z,74.60
2019-05-23T18:03:22.288Z,74.00
2019-05-23T18:05:51.036Z,75.00
2019-05-23T18:08:20.791Z,76.20
2019-05-23T18:10:52.475Z,78.80
2019-05-23T18:13:21.740Z,80.20
2019-05-23T18:15:50.466Z,84.70
2019-05-23T18:18:18.967Z,90.00
2019-05-23T18:20:48.608Z,90.90
2019-05-23T18:23:23.239Z,91.80
2019-05-23T18:25:52.038Z,92.30
2019-05-23T18:28:20.920Z,92.70
2019-05-23T18:30:57.310Z,92.50
2019-05-23T18:33:26.996Z,92.50
2019-05-23T18:35:56.198Z,93.00
2019-05-23T18:38:25.496Z,93.10
2019-05-23T18:41:03.238Z,93.80
2019-05-23T18:43:25.849Z,94.00
2019-05-23T18:45:56.478Z,94.40
2019-05-23T18:48:25.071Z,94.40
2019-05-23T18:50:53.862Z,94.60
2019-05-23T18:53:22.604Z,94.70
2019-05-23T18:55:51.288Z,95.00
2019-05-23T18:58:20.413Z,95.20
2019-05-23T19:00:59.344Z,95.10
2019-05-23T19:03:28.306Z,95.40
2019-05-23T19:05:57.092Z,95.80
2019-05-23T19:08:25.893Z,96.10
2019-05-23T19:10:54.379Z,96.40
2019-05-23T19:13:26.332Z,96.70
2019-05-23T19:15:53.028Z,97.20
2019-05-23T19:18:23.326Z,97.50
2019-05-23T19:20:54.915Z,97.80
2019-05-23T19:23:22.942Z,98.00
2019-05-23T19:25:52.125Z,98.00
2019-05-23T19:28:21.357Z,98.30
2019-05-23T19:30:50.571Z,98.50
2019-05-23T19:33:19.140Z,98.70
2019-05-23T19:35:48.512Z,98.90
2019-05-23T19:38:16.924Z,99.00
2019-05-23T19:40:45.535Z,99.40
2019-05-23T19:43:15.571Z,99.60
2019-05-23T19:45:44.235Z,99.80
2019-05-23T19:48:12.735Z,99.90
2019-05-23T19:50:41.234Z,99.90
2019-05-23T19:53:09.910Z,99.90
2019-05-23T19:55:40.288Z,99.90
2019-05-23T19:58:08.875Z,99.90
2019-05-23T20:00:37.291Z,99.90
2019-05-23T20:03:06.803Z,99.90
2019-05-23T20:05:37.019Z,99.90
2019-05-23T20:08:05.921Z,99.90
2019-05-23T20:10:35.228Z,99.90
2019-05-23T20:13:04.042Z,99.90
2019-05-23T20:15:33.103Z,99.90
2019-05-23T20:18:01.797Z,99.90
2019-05-23T20:20:31.352Z,99.90
2019-05-23T20:23:03.911Z,99.90
2019-05-23T20:25:34.046Z,99.90
2019-05-23T20:28:06.269Z,99.90
2019-05-23T20:30:47.599Z,99.90
2019-05-23T20:33:16.269Z,99.90
2019-05-23T20:35:46.327Z,99.90
2019-05-23T20:38:16.567Z,99.90
2019-05-23T20:40:50.075Z,99.90
2019-05-23T20:43:21.594Z,99.90
2019-05-23T20:45:50.011Z,99.90
2019-05-23T20:48:18.906Z,99.90
2019-05-23T20:50:49.233Z,99.90
2019-05-23T20:53:22.018Z,99.90
2019-05-23T20:55:53.317Z,99.90
2019-05-23T20:58:24.875Z,99.90
2019-05-23T21:00:57.823Z,99.90
2019-05-23T21:03:29.818Z,99.90
2019-05-23T21:06:09.207Z,99.90
2019-05-23T21:08:40.784Z,99.90
2019-05-23T21:11:09.359Z,99.90
2019-05-23T21:13:38.366Z,99.90
2019-05-23T21:16:07.113Z,99.90
2019-05-23T21:18:35.536Z,99.90
2019-05-23T21:21:10.250Z,99.90
2019-05-23T21:23:38.708Z,99.90
2019-05-23T21:26:12.411Z,99.90
2019-05-23T21:28:49.601Z,99.90
2019-05-23T21:31:22.650Z,99.90
2019-05-23T21:33:52.784Z,99.90
2019-05-23T21:36:22.909Z,99.90
2019-05-23T21:38:51.389Z,99.90
2019-05-23T21:41:22.859Z,99.90
2019-05-23T21:43:55.949Z,99.90
2019-05-23T21:46:26.364Z,99.90
2019-05-23T21:48:56.424Z,99.90
2019-05-23T21:51:28.801Z,99.90
2019-05-23T21:54:09.081Z,99.90
2019-05-23T21:56:40.762Z,99.90
2019-05-23T21:59:12.302Z,99.90
2019-05-23T22:01:45.296Z,99.90
2019-05-23T22:04:33.651Z,99.90
2019-05-23T22:07:05.406Z,99.90
2019-05-23T22:09:35.653Z,99.90
2019-05-23T22:12:04.401Z,99.90
2019-05-23T22:14:34.462Z,99.90
2019-05-23T22:17:10.693Z,99.90
2019-05-23T22:19:43.864Z,99.90
2019-05-23T22:22:10.054Z,99.90
2019-05-23T22:24:38.746Z,99.90
2019-05-23T22:27:08.995Z,99.90
2019-05-23T22:29:39.264Z,99.90
2019-05-23T22:32:12.117Z,99.90
2019-05-23T22:34:42.176Z,99.90
2019-05-23T22:37:15.410Z,99.90
2019-05-23T22:39:56.063Z,99.90
2019-05-23T22:42:24.975Z,99.90
2019-05-23T22:44:53.614Z,99.90
2019-05-23T22:47:25.034Z,99.90
2019-05-23T22:49:56.356Z,99.90
2019-05-23T22:52:25.575Z,99.90
2019-05-23T22:54:59.860Z,99.90
2019-05-23T22:57:34.422Z,99.90
2019-05-23T23:00:03.579Z,99.90
2019-05-23T23:02:32.061Z,99.90
2019-05-23T23:05:06.466Z,99.90
2019-05-23T23:07:36.537Z,99.90
2019-05-23T23:10:06.411Z,99.90
2019-05-23T23:12:35.290Z,99.90
2019-05-23T23:15:07.097Z,99.90
2019-05-23T23:17:37.171Z,99.90
2019-05-23T23:20:12.826Z,99.90
2019-05-23T23:22:49.886Z,99.90
2019-05-23T23:25:24.145Z,99.90
2019-05-23T23:27:54.213Z,99.90
2019-05-23T23:30:38.962Z,99.90
2019-05-23T23:33:07.390Z,99.90
2019-05-23T23:35:41.448Z,99.90
2019-05-23T23:38:10.167Z,99.90
2019-05-23T23:40:39.603Z,99.90
2019-05-23T23:43:08.933Z,99.90
2019-05-23T23:46:01.552Z,99.90
2019-05-23T23:48:48.445Z,99.90
2019-05-23T23:51:38.038Z,99.90
2019-05-23T23:54:29.964Z,99.90
2019-05-23T23:57:19.394Z,99.90
2019-05-23T23:59:48.737Z,99.90
